Precept, Nebraska
Current Conditions -  °F | °C
As of 4:35 PM on Sunday 23 Nov 2014 (Local Time) from KHDE Reporting Station
Clear Clear  
Wind Chill: 39°   Ceiling: Unl
Heat Index: 47°   Visibility: 10mi
Dew Point: 17°   Wind: 25mph
Humidity: 29%   Direction: 340°NNW
Pressure: 29.61"   Gusts: 38mph
Location:  40.0893°N, 99.5735°W
Report Text: KHDE 232235Z AUTO 34022G33KT 10SM CLR 08/M09 A2961 RMK AO2 T00841086
Loading
Personal Weather Stations






























Interactive Weather Map New forecast layout! Learn more

10-Day Weather Forecast

Advertisements
Track Severe Weather on mobile